sensor_id;sensor_type;location;lat;lon;timestamp;pressure;altitude;pressure_sealevel;temperature
40199;BMP280;25906;43.536;26.068;2023-05-10T00:00:36;99429.94;;;8.81
40199;BMP280;25906;43.536;26.068;2023-05-10T00:03:21;99431.63;;;8.53
40199;BMP280;25906;43.536;26.068;2023-05-10T00:06:07;99427.13;;;8.50
40199;BMP280;25906;43.536;26.068;2023-05-10T00:08:52;99431.28;;;8.51
40199;BMP280;25906;43.536;26.068;2023-05-10T00:11:38;99429.06;;;8.43
40199;BMP280;25906;43.536;26.068;2023-05-10T00:14:23;99423.00;;;8.46
40199;BMP280;25906;43.536;26.068;2023-05-10T00:17:08;99429.06;;;8.43
40199;BMP280;25906;43.536;26.068;2023-05-10T00:19:54;99424.59;;;8.36
40199;BMP280;25906;43.536;26.068;2023-05-10T00:22:39;99425.34;;;8.33
40199;BMP280;25906;43.536;26.068;2023-05-10T00:25:25;99425.34;;;8.37
40199;BMP280;25906;43.536;26.068;2023-05-10T00:28:10;99429.88;;;8.32
40199;BMP280;25906;43.536;26.068;2023-05-10T00:30:55;99431.06;;;8.24
40199;BMP280;25906;43.536;26.068;2023-05-10T00:33:41;99428.00;;;8.29
40199;BMP280;25906;43.536;26.068;2023-05-10T00:36:26;99424.31;;;8.16
40199;BMP280;25906;43.536;26.068;2023-05-10T00:39:12;99423.94;;;8.14
40199;BMP280;25906;43.536;26.068;2023-05-10T00:41:58;99428.78;;;8.23
40199;BMP280;25906;43.536;26.068;2023-05-10T00:44:44;99424.75;;;8.08
40199;BMP280;25906;43.536;26.068;2023-05-10T00:47:30;99419.41;;;8.15
40199;BMP280;25906;43.536;26.068;2023-05-10T00:50:16;99420.91;;;8.19
40199;BMP280;25906;43.536;26.068;2023-05-10T00:53:02;99420.56;;;8.10
40199;BMP280;25906;43.536;26.068;2023-05-10T00:55:48;99415.72;;;8.02
40199;BMP280;25906;43.536;26.068;2023-05-10T00:58:33;99411.66;;;7.87
40199;BMP280;25906;43.536;26.068;2023-05-10T01:01:19;99417.63;;;7.91
40199;BMP280;25906;43.536;26.068;2023-05-10T01:04:04;99413.50;;;7.93
40199;BMP280;25906;43.536;26.068;2023-05-10T01:06:50;99412.00;;;7.89
40199;BMP280;25906;43.536;26.068;2023-05-10T01:09:35;99403.75;;;7.87
40199;BMP280;25906;43.536;26.068;2023-05-10T01:12:21;99410.53;;;7.84
40199;BMP280;25906;43.536;26.068;2023-05-10T01:15:07;99410.53;;;7.80
40199;BMP280;25906;43.536;26.068;2023-05-10T01:17:54;99402.28;;;7.75
40199;BMP280;25906;43.536;26.068;2023-05-10T01:20:43;99403.03;;;7.75
40199;BMP280;25906;43.536;26.068;2023-05-10T01:33:07;99403.09;;;7.43
40199;BMP280;25906;43.536;26.068;2023-05-10T01:36:01;99397.44;;;7.52
40199;BMP280;25906;43.536;26.068;2023-05-10T01:38:51;99395.94;;;7.48
40199;BMP280;25906;43.536;26.068;2023-05-10T01:41:49;99395.56;;;7.46
40199;BMP280;25906;43.536;26.068;2023-05-10T01:48:07;99388.81;;;7.34
40199;BMP280;25906;43.536;26.068;2023-05-10T01:50:54;99399.75;;;7.39
40199;BMP280;25906;43.536;26.068;2023-05-10T01:53:42;99398.63;;;7.33
40199;BMP280;25906;43.536;26.068;2023-05-10T01:56:30;99399.34;;;7.34
40199;BMP280;25906;43.536;26.068;2023-05-10T01:59:18;99398.59;;;7.19
40199;BMP280;25906;43.536;26.068;2023-05-10T02:02:05;99401.25;;;7.23
40199;BMP280;25906;43.536;26.068;2023-05-10T02:04:51;99397.47;;;7.31
40199;BMP280;25906;43.536;26.068;2023-05-10T02:07:38;99400.50;;;7.40
40199;BMP280;25906;43.536;26.068;2023-05-10T02:10:24;99394.09;;;7.27
40199;BMP280;25906;43.536;26.068;2023-05-10T02:13:10;99402.00;;;7.30
40199;BMP280;25906;43.536;26.068;2023-05-10T02:15:56;99402.34;;;7.36
40199;BMP280;25906;43.536;26.068;2023-05-10T02:18:43;99399.38;;;7.27
40199;BMP280;25906;43.536;26.068;2023-05-10T02:21:30;99402.75;;;7.20
40199;BMP280;25906;43.536;26.068;2023-05-10T02:24:16;99394.88;;;7.24
40199;BMP280;25906;43.536;26.068;2023-05-10T02:27:03;99386.59;;;7.22
40199;BMP280;25906;43.536;26.068;2023-05-10T02:29:49;99388.06;;;7.19
40199;BMP280;25906;43.536;26.068;2023-05-10T02:32:36;99386.59;;;7.18
40199;BMP280;25906;43.536;26.068;2023-05-10T02:35:22;99385.44;;;7.19
40199;BMP280;25906;43.536;26.068;2023-05-10T02:38:08;99395.59;;;7.10
40199;BMP280;25906;43.536;26.068;2023-05-10T02:40:54;99387.34;;;7.12
40199;BMP280;25906;43.536;26.068;2023-05-10T02:43:40;99382.84;;;7.12
40199;BMP280;25906;43.536;26.068;2023-05-10T02:46:27;99382.47;;;7.14
40199;BMP280;25906;43.536;26.068;2023-05-10T02:49:12;99378.69;;;7.22
40199;BMP280;25906;43.536;26.068;2023-05-10T02:52:00;99382.06;;;7.26
40199;BMP280;25906;43.536;26.068;2023-05-10T02:54:50;99380.19;;;7.23
40199;BMP280;25906;43.536;26.068;2023-05-10T02:57:40;99380.59;;;7.25
40199;BMP280;25906;43.536;26.068;2023-05-10T03:00:26;99374.94;;;7.23
40199;BMP280;25906;43.536;26.068;2023-05-10T03:03:12;99386.56;;;7.36
40199;BMP280;25906;43.536;26.068;2023-05-10T03:05:57;99385.44;;;7.37
40199;BMP280;25906;43.536;26.068;2023-05-10T03:08:44;99384.69;;;7.33
40199;BMP280;25906;43.536;26.068;2023-05-10T03:14:45;99385.81;;;7.39
40199;BMP280;25906;43.536;26.068;2023-05-10T03:20:48;99383.56;;;7.41
40199;BMP280;25906;43.536;26.068;2023-05-10T03:26:25;99377.84;;;7.64
40199;BMP280;25906;43.536;26.068;2023-05-10T03:29:14;99372.19;;;7.58
40199;BMP280;25906;43.536;26.068;2023-05-10T03:32:00;99378.88;;;7.88
40199;BMP280;25906;43.536;26.068;2023-05-10T03:34:46;99377.31;;;8.01
40199;BMP280;25906;43.536;26.068;2023-05-10T03:37:31;99377.59;;;8.20
40199;BMP280;25906;43.536;26.068;2023-05-10T03:40:16;99391.66;;;8.58
40199;BMP280;25906;43.536;26.068;2023-05-10T03:43:02;99390.78;;;8.75
40199;BMP280;25906;43.536;26.068;2023-05-10T03:45:47;99386.13;;;8.90
40199;BMP280;25906;43.536;26.068;2023-05-10T03:48:33;99394.41;;;8.92
40199;BMP280;25906;43.536;26.068;2023-05-10T03:51:19;99394.97;;;9.14
40199;BMP280;25906;43.536;26.068;2023-05-10T03:54:04;99398.38;;;9.14
40199;BMP280;25906;43.536;26.068;2023-05-10T03:56:49;99400.63;;;9.50
40199;BMP280;25906;43.536;26.068;2023-05-10T03:59:35;99409.66;;;9.83
40199;BMP280;25906;43.536;26.068;2023-05-10T04:02:20;99393.59;;;10.00
40199;BMP280;25906;43.536;26.068;2023-05-10T04:05:06;99399.41;;;10.19
40199;BMP280;25906;43.536;26.068;2023-05-10T04:07:51;99401.59;;;10.24
40199;BMP280;25906;43.536;26.068;2023-05-10T04:10:37;99402.00;;;10.22
40199;BMP280;25906;43.536;26.068;2023-05-10T04:13:22;99408.22;;;10.35
40199;BMP280;25906;43.536;26.068;2023-05-10T04:16:08;99413.41;;;10.42
40199;BMP280;25906;43.536;26.068;2023-05-10T04:18:54;99412.09;;;10.54
40199;BMP280;25906;43.536;26.068;2023-05-10T04:21:39;99414.34;;;10.55
40199;BMP280;25906;43.536;26.068;2023-05-10T04:24:24;99415.25;;;10.69
40199;BMP280;25906;43.536;26.068;2023-05-10T04:27:10;99408.19;;;10.85
40199;BMP280;25906;43.536;26.068;2023-05-10T04:29:56;99413.22;;;10.80
40199;BMP280;25906;43.536;26.068;2023-05-10T04:32:42;99410.91;;;10.82
40199;BMP280;25906;43.536;26.068;2023-05-10T04:35:27;99415.28;;;10.92
40199;BMP280;25906;43.536;26.068;2023-05-10T04:38:13;99420.50;;;10.95
40199;BMP280;25906;43.536;26.068;2023-05-10T04:41:09;99412.38;;;11.06
40199;BMP280;25906;43.536;26.068;2023-05-10T04:43:56;99410.16;;;11.04
40199;BMP280;25906;43.536;26.068;2023-05-10T04:46:41;99409.03;;;11.02
40199;BMP280;25906;43.536;26.068;2023-05-10T04:49:26;99415.03;;;11.06
40199;BMP280;25906;43.536;26.068;2023-05-10T04:52:12;99416.41;;;11.34
40199;BMP280;25906;43.536;26.068;2023-05-10T04:54:57;99417.28;;;11.27
40199;BMP280;25906;43.536;26.068;2023-05-10T04:57:43;99411.44;;;11.36
40199;BMP280;25906;43.536;26.068;2023-05-10T05:00:28;99414.56;;;11.50
40199;BMP280;25906;43.536;26.068;2023-05-10T05:03:13;99428.72;;;11.64
40199;BMP280;25906;43.536;26.068;2023-05-10T05:05:59;99425.03;;;11.77
40199;BMP280;25906;43.536;26.068;2023-05-10T05:08:44;99421.91;;;11.98
40199;BMP280;25906;43.536;26.068;2023-05-10T05:11:30;99423.75;;;12.01
40199;BMP280;25906;43.536;26.068;2023-05-10T05:14:15;99413.75;;;12.25
40199;BMP280;25906;43.536;26.068;2023-05-10T05:17:00;99416.31;;;12.29
40199;BMP280;25906;43.536;26.068;2023-05-10T05:19:46;99411.56;;;12.20
40199;BMP280;25906;43.536;26.068;2023-05-10T05:22:31;99411.84;;;12.42
40199;BMP280;25906;43.536;26.068;2023-05-10T05:25:17;99411.75;;;12.45
40199;BMP280;25906;43.536;26.068;2023-05-10T05:28:02;99410.00;;;12.55
40199;BMP280;25906;43.536;26.068;2023-05-10T05:30:47;99410.72;;;12.88
40199;BMP280;25906;43.536;26.068;2023-05-10T05:33:33;99414.94;;;12.85
40199;BMP280;25906;43.536;26.068;2023-05-10T05:36:19;99415.66;;;13.02
40199;BMP280;25906;43.536;26.068;2023-05-10T05:39:04;99418.97;;;13.06
40199;BMP280;25906;43.536;26.068;2023-05-10T05:41:50;99412.72;;;13.25
40199;BMP280;25906;43.536;26.068;2023-05-10T05:44:35;99420.31;;;13.39
40199;BMP280;25906;43.536;26.068;2023-05-10T05:47:21;99415.50;;;13.22
40199;BMP280;25906;43.536;26.068;2023-05-10T05:50:06;99409.06;;;13.35
40199;BMP280;25906;43.536;26.068;2023-05-10T05:52:52;99420.19;;;13.30
40199;BMP280;25906;43.536;26.068;2023-05-10T05:55:37;99414.78;;;13.34
40199;BMP280;25906;43.536;26.068;2023-05-10T05:58:23;99409.06;;;13.48
40199;BMP280;25906;43.536;26.068;2023-05-10T06:01:08;99406.00;;;13.62
40199;BMP280;25906;43.536;26.068;2023-05-10T06:03:54;99407.06;;;13.65
40199;BMP280;25906;43.536;26.068;2023-05-10T06:06:39;99412.38;;;13.65
40199;BMP280;25906;43.536;26.068;2023-05-10T06:09:24;99411.13;;;13.82
40199;BMP280;25906;43.536;26.068;2023-05-10T06:12:10;99412.19;;;13.84
40199;BMP280;25906;43.536;26.068;2023-05-10T06:14:57;99413.47;;;14.05
40199;BMP280;25906;43.536;26.068;2023-05-10T06:17:42;99409.53;;;14.10
40199;BMP280;25906;43.536;26.068;2023-05-10T06:20:29;99413.34;;;14.21
40199;BMP280;25906;43.536;26.068;2023-05-10T06:23:16;99420.50;;;13.99
40199;BMP280;25906;43.536;26.068;2023-05-10T06:26:01;99412.53;;;13.99
40199;BMP280;25906;43.536;26.068;2023-05-10T06:28:47;99405.16;;;14.03
40199;BMP280;25906;43.536;26.068;2023-05-10T06:31:32;99420.03;;;14.38
40199;BMP280;25906;43.536;26.068;2023-05-10T06:34:18;99415.25;;;14.68
40199;BMP280;25906;43.536;26.068;2023-05-10T06:37:03;99419.03;;;14.58
40199;BMP280;25906;43.536;26.068;2023-05-10T06:39:49;99417.13;;;14.80
40199;BMP280;25906;43.536;26.068;2023-05-10T06:42:34;99418.81;;;14.86
40199;BMP280;25906;43.536;26.068;2023-05-10T06:45:19;99426.25;;;15.13
40199;BMP280;25906;43.536;26.068;2023-05-10T06:48:05;99428.41;;;15.05
40199;BMP280;25906;43.536;26.068;2023-05-10T06:50:51;99427.72;;;15.14
40199;BMP280;25906;43.536;26.068;2023-05-10T06:53:36;99422.38;;;15.05
40199;BMP280;25906;43.536;26.068;2023-05-10T06:56:21;99424.78;;;15.43
40199;BMP280;25906;43.536;26.068;2023-05-10T06:59:07;99423.44;;;15.38
40199;BMP280;25906;43.536;26.068;2023-05-10T07:01:52;99421.59;;;15.26
40199;BMP280;25906;43.536;26.068;2023-05-10T07:04:39;99423.94;;;14.81
40199;BMP280;25906;43.536;26.068;2023-05-10T07:07:24;99426.94;;;15.04
40199;BMP280;25906;43.536;26.068;2023-05-10T07:10:10;99427.84;;;15.63
40199;BMP280;25906;43.536;26.068;2023-05-10T07:12:55;99426.56;;;14.93
40199;BMP280;25906;43.536;26.068;2023-05-10T07:15:41;99429.97;;;15.46
40199;BMP280;25906;43.536;26.068;2023-05-10T07:18:27;99428.16;;;16.14
40199;BMP280;25906;43.536;26.068;2023-05-10T07:21:13;99433.38;;;15.78
40199;BMP280;25906;43.536;26.068;2023-05-10T07:23:58;99432.25;;;15.26
40199;BMP280;25906;43.536;26.068;2023-05-10T07:26:45;99432.84;;;15.30
40199;BMP280;25906;43.536;26.068;2023-05-10T07:29:30;99432.09;;;15.82
40199;BMP280;25906;43.536;26.068;2023-05-10T07:32:16;99434.75;;;16.40
40199;BMP280;25906;43.536;26.068;2023-05-10T07:35:01;99433.53;;;16.32
40199;BMP280;25906;43.536;26.068;2023-05-10T07:37:46;99426.84;;;16.28
40199;BMP280;25906;43.536;26.068;2023-05-10T07:40:32;99433.69;;;16.65
40199;BMP280;25906;43.536;26.068;2023-05-10T07:43:17;99434.28;;;16.87
40199;BMP280;25906;43.536;26.068;2023-05-10T07:46:03;99422.97;;;16.29
40199;BMP280;25906;43.536;26.068;2023-05-10T07:48:48;99439.13;;;16.07
40199;BMP280;25906;43.536;26.068;2023-05-10T07:51:34;99439.63;;;16.60
40199;BMP280;25906;43.536;26.068;2023-05-10T07:54:19;99422.28;;;16.46
40199;BMP280;25906;43.536;26.068;2023-05-10T07:57:05;99434.25;;;15.66
40199;BMP280;25906;43.536;26.068;2023-05-10T07:59:50;99436.09;;;15.56
40199;BMP280;25906;43.536;26.068;2023-05-10T08:02:35;99430.34;;;15.57
40199;BMP280;25906;43.536;26.068;2023-05-10T08:05:21;99429.25;;;15.77
40199;BMP280;25906;43.536;26.068;2023-05-10T08:08:07;99430.78;;;16.05
40199;BMP280;25906;43.536;26.068;2023-05-10T08:10:52;99436.34;;;16.47
40199;BMP280;25906;43.536;26.068;2023-05-10T08:13:37;99431.75;;;16.38
40199;BMP280;25906;43.536;26.068;2023-05-10T08:16:23;99433.72;;;16.56
40199;BMP280;25906;43.536;26.068;2023-05-10T08:19:08;99429.13;;;16.56
40199;BMP280;25906;43.536;26.068;2023-05-10T08:21:53;99437.84;;;17.02
40199;BMP280;25906;43.536;26.068;2023-05-10T08:24:40;99439.16;;;16.89
40199;BMP280;25906;43.536;26.068;2023-05-10T08:27:27;99437.69;;;16.24
40199;BMP280;25906;43.536;26.068;2023-05-10T08:30:12;99440.13;;;16.00
40199;BMP280;25906;43.536;26.068;2023-05-10T08:32:58;99434.00;;;16.76
40199;BMP280;25906;43.536;26.068;2023-05-10T08:35:43;99441.38;;;17.59
40199;BMP280;25906;43.536;26.068;2023-05-10T08:38:28;99434.25;;;17.89
40199;BMP280;25906;43.536;26.068;2023-05-10T08:41:14;99437.31;;;18.20
40199;BMP280;25906;43.536;26.068;2023-05-10T08:44:03;99445.34;;;17.64
40199;BMP280;25906;43.536;26.068;2023-05-10T08:46:53;99445.63;;;17.75
40199;BMP280;25906;43.536;26.068;2023-05-10T08:49:38;99447.97;;;18.06
40199;BMP280;25906;43.536;26.068;2023-05-10T08:52:24;99441.41;;;17.83
40199;BMP280;25906;43.536;26.068;2023-05-10T08:55:10;99442.84;;;17.18
40199;BMP280;25906;43.536;26.068;2023-05-10T08:57:55;99435.41;;;17.13
40199;BMP280;25906;43.536;26.068;2023-05-10T09:00:41;99443.13;;;17.71
40199;BMP280;25906;43.536;26.068;2023-05-10T09:03:27;99444.50;;;17.58
40199;BMP280;25906;43.536;26.068;2023-05-10T09:06:13;99447.19;;;16.98
40199;BMP280;25906;43.536;26.068;2023-05-10T09:08:59;99441.25;;;16.76
40199;BMP280;25906;43.536;26.068;2023-05-10T09:11:45;99448.38;;;16.97
40199;BMP280;25906;43.536;26.068;2023-05-10T09:14:33;99436.03;;;17.59
40199;BMP280;25906;43.536;26.068;2023-05-10T09:17:22;99432.59;;;17.59
40199;BMP280;25906;43.536;26.068;2023-05-10T09:20:08;99435.16;;;17.86
40199;BMP280;25906;43.536;26.068;2023-05-10T09:22:54;99429.75;;;17.95
40199;BMP280;25906;43.536;26.068;2023-05-10T09:25:41;99428.72;;;17.27
40199;BMP280;25906;43.536;26.068;2023-05-10T09:28:26;99430.97;;;17.10
40199;BMP280;25906;43.536;26.068;2023-05-10T09:31:12;99423.53;;;17.56
40199;BMP280;25906;43.536;26.068;2023-05-10T09:33:57;99416.50;;;17.35
40199;BMP280;25906;43.536;26.068;2023-05-10T09:36:56;99409.25;;;17.27
40199;BMP280;25906;43.536;26.068;2023-05-10T09:39:42;99410.13;;;17.65
40199;BMP280;25906;43.536;26.068;2023-05-10T09:42:27;99410.03;;;18.07
40199;BMP280;25906;43.536;26.068;2023-05-10T09:45:13;99408.69;;;18.26
40199;BMP280;25906;43.536;26.068;2023-05-10T09:48:00;99410.88;;;18.52
40199;BMP280;25906;43.536;26.068;2023-05-10T09:50:56;99404.59;;;18.69
40199;BMP280;25906;43.536;26.068;2023-05-10T09:53:41;99401.44;;;18.85
40199;BMP280;25906;43.536;26.068;2023-05-10T09:56:34;99400.50;;;18.59
40199;BMP280;25906;43.536;26.068;2023-05-10T09:59:25;99407.91;;;17.55
40199;BMP280;25906;43.536;26.068;2023-05-10T10:02:11;99404.38;;;18.05
40199;BMP280;25906;43.536;26.068;2023-05-10T10:04:57;99394.31;;;18.15
40199;BMP280;25906;43.536;26.068;2023-05-10T10:07:43;99394.03;;;18.80
40199;BMP280;25906;43.536;26.068;2023-05-10T10:10:29;99399.91;;;18.79
40199;BMP280;25906;43.536;26.068;2023-05-10T10:13:15;99390.09;;;18.61
40199;BMP280;25906;43.536;26.068;2023-05-10T10:16:02;99389.94;;;18.41
40199;BMP280;25906;43.536;26.068;2023-05-10T10:18:48;99400.34;;;18.01
40199;BMP280;25906;43.536;26.068;2023-05-10T10:21:33;99394.97;;;18.10
40199;BMP280;25906;43.536;26.068;2023-05-10T10:24:18;99386.13;;;18.18
40199;BMP280;25906;43.536;26.068;2023-05-10T10:27:43;99387.31;;;17.70
40199;BMP280;25906;43.536;26.068;2023-05-10T10:30:41;99390.53;;;17.17
40199;BMP280;25906;43.536;26.068;2023-05-10T10:33:40;99379.41;;;18.23
40199;BMP280;25906;43.536;26.068;2023-05-10T10:36:28;99370.78;;;18.19
40199;BMP280;25906;43.536;26.068;2023-05-10T10:39:15;99366.13;;;18.05
40199;BMP280;25906;43.536;26.068;2023-05-10T10:42:01;99367.97;;;17.99
40199;BMP280;25906;43.536;26.068;2023-05-10T10:44:48;99364.72;;;18.33
40199;BMP280;25906;43.536;26.068;2023-05-10T10:47:33;99362.78;;;17.95
40199;BMP280;25906;43.536;26.068;2023-05-10T10:50:20;99365.75;;;18.79
40199;BMP280;25906;43.536;26.068;2023-05-10T10:53:11;99359.91;;;18.81
40199;BMP280;25906;43.536;26.068;2023-05-10T10:56:07;99367.00;;;18.40
40199;BMP280;25906;43.536;26.068;2023-05-10T10:58:59;99360.84;;;18.93
40199;BMP280;25906;43.536;26.068;2023-05-10T11:01:44;99357.56;;;19.18
40199;BMP280;25906;43.536;26.068;2023-05-10T11:04:43;99352.72;;;18.87
40199;BMP280;25906;43.536;26.068;2023-05-10T11:07:31;99364.09;;;18.38
40199;BMP280;25906;43.536;26.068;2023-05-10T11:10:20;99352.16;;;18.83
40199;BMP280;25906;43.536;26.068;2023-05-10T11:13:07;99360.75;;;18.72
40199;BMP280;25906;43.536;26.068;2023-05-10T11:15:53;99337.94;;;17.95
40199;BMP280;25906;43.536;26.068;2023-05-10T11:18:39;99348.28;;;18.55
40199;BMP280;25906;43.536;26.068;2023-05-10T11:21:24;99347.47;;;18.63
40199;BMP280;25906;43.536;26.068;2023-05-10T11:24:15;99336.88;;;18.89
40199;BMP280;25906;43.536;26.068;2023-05-10T11:27:01;99349.28;;;18.28
40199;BMP280;25906;43.536;26.068;2023-05-10T11:29:51;99337.94;;;19.12
40199;BMP280;25906;43.536;26.068;2023-05-10T11:32:40;99339.75;;;19.35
40199;BMP280;25906;43.536;26.068;2023-05-10T11:35:27;99333.50;;;19.43
40199;BMP280;25906;43.536;26.068;2023-05-10T11:38:13;99322.06;;;19.69
40199;BMP280;25906;43.536;26.068;2023-05-10T11:40:59;99324.84;;;18.84
40199;BMP280;25906;43.536;26.068;2023-05-10T11:43:46;99325.13;;;19.56
40199;BMP280;25906;43.536;26.068;2023-05-10T11:46:34;99336.56;;;19.36
40199;BMP280;25906;43.536;26.068;2023-05-10T11:49:20;99331.53;;;19.24
40199;BMP280;25906;43.536;26.068;2023-05-10T11:52:08;99336.53;;;18.52
40199;BMP280;25906;43.536;26.068;2023-05-10T11:54:54;99329.09;;;18.03
40199;BMP280;25906;43.536;26.068;2023-05-10T11:57:40;99325.16;;;18.57
40199;BMP280;25906;43.536;26.068;2023-05-10T12:00:27;99321.09;;;19.11
40199;BMP280;25906;43.536;26.068;2023-05-10T12:03:13;99315.72;;;19.11
40199;BMP280;25906;43.536;26.068;2023-05-10T12:05:58;99313.44;;;18.55
40199;BMP280;25906;43.536;26.068;2023-05-10T12:08:46;99318.03;;;17.87
40199;BMP280;25906;43.536;26.068;2023-05-10T12:11:31;99317.84;;;17.75
40199;BMP280;25906;43.536;26.068;2023-05-10T12:14:17;99318.34;;;17.41
40199;BMP280;25906;43.536;26.068;2023-05-10T12:17:04;99304.72;;;17.77
40199;BMP280;25906;43.536;26.068;2023-05-10T12:19:50;99304.84;;;18.51
40199;BMP280;25906;43.536;26.068;2023-05-10T12:22:35;99301.59;;;18.61
40199;BMP280;25906;43.536;26.068;2023-05-10T12:25:22;99297.16;;;19.08
40199;BMP280;25906;43.536;26.068;2023-05-10T12:28:08;99296.78;;;19.15
40199;BMP280;25906;43.536;26.068;2023-05-10T12:30:54;99298.00;;;19.54
40199;BMP280;25906;43.536;26.068;2023-05-10T12:33:42;99295.44;;;19.65
40199;BMP280;25906;43.536;26.068;2023-05-10T12:36:27;99296.38;;;19.62
40199;BMP280;25906;43.536;26.068;2023-05-10T12:39:13;99293.09;;;19.53
40199;BMP280;25906;43.536;26.068;2023-05-10T12:41:58;99286.47;;;18.93
40199;BMP280;25906;43.536;26.068;2023-05-10T12:44:44;99280.28;;;19.62
40199;BMP280;25906;43.536;26.068;2023-05-10T12:47:30;99276.50;;;19.74
40199;BMP280;25906;43.536;26.068;2023-05-10T12:50:15;99270.44;;;19.79
40199;BMP280;25906;43.536;26.068;2023-05-10T12:53:00;99267.66;;;19.94
40199;BMP280;25906;43.536;26.068;2023-05-10T12:55:46;99270.25;;;19.63
40199;BMP280;25906;43.536;26.068;2023-05-10T12:58:31;99268.25;;;19.58
40199;BMP280;25906;43.536;26.068;2023-05-10T13:01:16;99262.41;;;19.59
40199;BMP280;25906;43.536;26.068;2023-05-10T13:04:02;99265.50;;;19.72
40199;BMP280;25906;43.536;26.068;2023-05-10T13:06:47;99277.47;;;19.97
40199;BMP280;25906;43.536;26.068;2023-05-10T13:09:32;99274.50;;;19.95
40199;BMP280;25906;43.536;26.068;2023-05-10T13:12:18;99267.41;;;19.46
40199;BMP280;25906;43.536;26.068;2023-05-10T13:15:04;99259.28;;;18.85
40199;BMP280;25906;43.536;26.068;2023-05-10T13:17:49;99260.09;;;18.27
40199;BMP280;25906;43.536;26.068;2023-05-10T13:20:34;99256.75;;;17.27
40199;BMP280;25906;43.536;26.068;2023-05-10T13:23:20;99247.59;;;17.42
40199;BMP280;25906;43.536;26.068;2023-05-10T13:26:05;99247.03;;;17.29
40199;BMP280;25906;43.536;26.068;2023-05-10T13:28:50;99241.75;;;17.20
40199;BMP280;25906;43.536;26.068;2023-05-10T13:31:36;99249.94;;;16.84
40199;BMP280;25906;43.536;26.068;2023-05-10T13:34:22;99248.22;;;16.72
40199;BMP280;25906;43.536;26.068;2023-05-10T13:37:07;99234.78;;;16.39
40199;BMP280;25906;43.536;26.068;2023-05-10T13:39:53;99238.22;;;16.21
40199;BMP280;25906;43.536;26.068;2023-05-10T13:42:38;99241.94;;;16.24
40199;BMP280;25906;43.536;26.068;2023-05-10T13:45:23;99240.03;;;16.24
40199;BMP280;25906;43.536;26.068;2023-05-10T13:48:09;99239.41;;;16.38
40199;BMP280;25906;43.536;26.068;2023-05-10T13:50:54;99244.44;;;16.45
40199;BMP280;25906;43.536;26.068;2023-05-10T13:53:40;99231.41;;;16.29
40199;BMP280;25906;43.536;26.068;2023-05-10T13:56:25;99233.28;;;16.47
40199;BMP280;25906;43.536;26.068;2023-05-10T13:59:11;99229.56;;;16.53
40199;BMP280;25906;43.536;26.068;2023-05-10T14:01:56;99232.56;;;16.37
40199;BMP280;25906;43.536;26.068;2023-05-10T14:04:41;99226.84;;;16.62
40199;BMP280;25906;43.536;26.068;2023-05-10T14:07:27;99235.91;;;16.65
40199;BMP280;25906;43.536;26.068;2023-05-10T14:10:12;99239.16;;;16.69
40199;BMP280;25906;43.536;26.068;2023-05-10T14:12:58;99236.16;;;16.76
40199;BMP280;25906;43.536;26.068;2023-05-10T14:15:43;99224.72;;;17.08
40199;BMP280;25906;43.536;26.068;2023-05-10T14:18:29;99226.72;;;16.90
40199;BMP280;25906;43.536;26.068;2023-05-10T14:21:14;99215.66;;;17.06
40199;BMP280;25906;43.536;26.068;2023-05-10T14:24:00;99220.47;;;16.60
40199;BMP280;25906;43.536;26.068;2023-05-10T14:26:45;99219.28;;;16.94
40199;BMP280;25906;43.536;26.068;2023-05-10T14:29:31;99226.75;;;17.13
40199;BMP280;25906;43.536;26.068;2023-05-10T14:32:16;99224.72;;;17.08
40199;BMP280;25906;43.536;26.068;2023-05-10T14:35:02;99222.91;;;17.14
40199;BMP280;25906;43.536;26.068;2023-05-10T14:37:48;99231.22;;;16.93
40199;BMP280;25906;43.536;26.068;2023-05-10T14:40:33;99236.63;;;16.65
40199;BMP280;25906;43.536;26.068;2023-05-10T14:43:19;99228.53;;;16.84
40199;BMP280;25906;43.536;26.068;2023-05-10T14:46:04;99220.78;;;16.95
40199;BMP280;25906;43.536;26.068;2023-05-10T14:48:50;99222.09;;;16.99
40199;BMP280;25906;43.536;26.068;2023-05-10T14:51:35;99231.81;;;16.88
40199;BMP280;25906;43.536;26.068;2023-05-10T14:54:22;99226.13;;;16.95
40199;BMP280;25906;43.536;26.068;2023-05-10T14:57:07;99227.47;;;16.90
40199;BMP280;25906;43.536;26.068;2023-05-10T14:59:52;99236.91;;;16.67
40199;BMP280;25906;43.536;26.068;2023-05-10T15:02:38;99222.34;;;16.78
40199;BMP280;25906;43.536;26.068;2023-05-10T15:05:23;99240.09;;;16.57
40199;BMP280;25906;43.536;26.068;2023-05-10T15:08:09;99239.13;;;16.78
40199;BMP280;25906;43.536;26.068;2023-05-10T15:10:54;99228.34;;;16.63
40199;BMP280;25906;43.536;26.068;2023-05-10T15:13:40;99232.88;;;16.30
40199;BMP280;25906;43.536;26.068;2023-05-10T15:16:26;99234.38;;;16.40
40199;BMP280;25906;43.536;26.068;2023-05-10T15:19:11;99230.53;;;16.23
40199;BMP280;25906;43.536;26.068;2023-05-10T15:21:57;99231.59;;;16.07
40199;BMP280;25906;43.536;26.068;2023-05-10T15:24:42;99233.66;;;16.03
40199;BMP280;25906;43.536;26.068;2023-05-10T15:27:27;99232.34;;;15.99
40199;BMP280;25906;43.536;26.068;2023-05-10T15:30:13;99228.44;;;15.73
40199;BMP280;25906;43.536;26.068;2023-05-10T15:32:58;99231.88;;;15.73
40199;BMP280;25906;43.536;26.068;2023-05-10T15:35:44;99239.56;;;15.71
40199;BMP280;25906;43.536;26.068;2023-05-10T15:38:29;99246.28;;;15.85
40199;BMP280;25906;43.536;26.068;2023-05-10T15:41:16;99235.00;;;15.99
40199;BMP280;25906;43.536;26.068;2023-05-10T15:44:02;99236.78;;;15.93
40199;BMP280;25906;43.536;26.068;2023-05-10T15:46:47;99235.41;;;15.70
40199;BMP280;25906;43.536;26.068;2023-05-10T15:49:33;99237.50;;;15.75
40199;BMP280;25906;43.536;26.068;2023-05-10T15:52:19;99237.16;;;15.46
40199;BMP280;25906;43.536;26.068;2023-05-10T15:55:06;99236.13;;;15.61
40199;BMP280;25906;43.536;26.068;2023-05-10T15:57:56;99236.16;;;15.43
40199;BMP280;25906;43.536;26.068;2023-05-10T16:00:42;99237.78;;;15.50
40199;BMP280;25906;43.536;26.068;2023-05-10T16:03:27;99229.00;;;15.40
40199;BMP280;25906;43.536;26.068;2023-05-10T16:06:13;99233.75;;;15.45
40199;BMP280;25906;43.536;26.068;2023-05-10T16:08:58;99232.31;;;15.44